sensor_id;sensor_type;location;lat;lon;timestamp;P1;durP1;ratioP1;P2;durP2;ratioP2
1839;SDS011;920;48.944;9.148;2023-07-31T00:00:46;5.60;;;1.40;;
1839;SDS011;920;48.944;9.148;2023-07-31T00:03:13;3.10;;;1.63;;
1839;SDS011;920;48.944;9.148;2023-07-31T00:05:39;3.13;;;1.60;;
1839;SDS011;920;48.944;9.148;2023-07-31T00:08:06;2.50;;;1.30;;
1839;SDS011;920;48.944;9.148;2023-07-31T00:10:34;2.10;;;1.30;;
1839;SDS011;920;48.944;9.148;2023-07-31T00:13:01;3.23;;;1.63;;
1839;SDS011;920;48.944;9.148;2023-07-31T00:15:28;2.47;;;1.47;;
1839;SDS011;920;48.944;9.148;2023-07-31T00:17:55;2.17;;;1.30;;
1839;SDS011;920;48.944;9.148;2023-07-31T00:20:22;2.40;;;1.20;;
1839;SDS011;920;48.944;9.148;2023-07-31T00:22:50;2.73;;;1.60;;
1839;SDS011;920;48.944;9.148;2023-07-31T00:25:17;2.43;;;1.37;;
1839;SDS011;920;48.944;9.148;2023-07-31T00:27:45;2.40;;;1.40;;
1839;SDS011;920;48.944;9.148;2023-07-31T00:30:12;3.20;;;1.57;;
1839;SDS011;920;48.944;9.148;2023-07-31T00:32:38;3.30;;;1.80;;
1839;SDS011;920;48.944;9.148;2023-07-31T00:35:05;4.93;;;1.40;;
1839;SDS011;920;48.944;9.148;2023-07-31T00:37:32;3.37;;;1.50;;
1839;SDS011;920;48.944;9.148;2023-07-31T00:39:59;3.30;;;1.43;;
1839;SDS011;920;48.944;9.148;2023-07-31T00:42:29;2.37;;;1.27;;
1839;SDS011;920;48.944;9.148;2023-07-31T00:44:57;3.73;;;1.50;;
1839;SDS011;920;48.944;9.148;2023-07-31T00:47:24;2.30;;;1.20;;
1839;SDS011;920;48.944;9.148;2023-07-31T00:49:51;2.70;;;1.50;;
1839;SDS011;920;48.944;9.148;2023-07-31T00:52:19;2.63;;;1.60;;
1839;SDS011;920;48.944;9.148;2023-07-31T00:54:45;4.63;;;1.60;;
1839;SDS011;920;48.944;9.148;2023-07-31T00:57:12;2.90;;;1.43;;
1839;SDS011;920;48.944;9.148;2023-07-31T00:59:39;2.57;;;1.40;;
1839;SDS011;920;48.944;9.148;2023-07-31T01:02:08;2.97;;;1.57;;
1839;SDS011;920;48.944;9.148;2023-07-31T01:04:35;3.60;;;1.57;;
1839;SDS011;920;48.944;9.148;2023-07-31T01:07:03;4.30;;;1.40;;
1839;SDS011;920;48.944;9.148;2023-07-31T01:09:34;3.30;;;1.60;;
1839;SDS011;920;48.944;9.148;2023-07-31T01:12:04;2.60;;;1.40;;
1839;SDS011;920;48.944;9.148;2023-07-31T01:14:33;2.83;;;1.37;;
1839;SDS011;920;48.944;9.148;2023-07-31T01:17:00;2.70;;;1.30;;
1839;SDS011;920;48.944;9.148;2023-07-31T01:19:28;2.70;;;1.40;;
1839;SDS011;920;48.944;9.148;2023-07-31T01:21:59;2.83;;;1.60;;
1839;SDS011;920;48.944;9.148;2023-07-31T01:24:41;2.50;;;1.50;;
1839;SDS011;920;48.944;9.148;2023-07-31T01:27:23;2.10;;;1.40;;
1839;SDS011;920;48.944;9.148;2023-07-31T01:29:53;3.27;;;1.60;;
1839;SDS011;920;48.944;9.148;2023-07-31T01:32:22;2.60;;;1.60;;
1839;SDS011;920;48.944;9.148;2023-07-31T01:34:50;2.60;;;1.50;;
1839;SDS011;920;48.944;9.148;2023-07-31T01:37:17;2.83;;;1.73;;
1839;SDS011;920;48.944;9.148;2023-07-31T01:39:44;3.90;;;1.53;;
1839;SDS011;920;48.944;9.148;2023-07-31T01:42:11;2.97;;;1.80;;
1839;SDS011;920;48.944;9.148;2023-07-31T01:44:39;2.80;;;1.40;;
1839;SDS011;920;48.944;9.148;2023-07-31T01:47:06;2.80;;;1.50;;
1839;SDS011;920;48.944;9.148;2023-07-31T01:49:33;2.30;;;1.30;;
1839;SDS011;920;48.944;9.148;2023-07-31T01:52:00;2.80;;;1.70;;
1839;SDS011;920;48.944;9.148;2023-07-31T01:54:27;2.77;;;1.67;;
1839;SDS011;920;48.944;9.148;2023-07-31T01:56:53;3.57;;;1.63;;
1839;SDS011;920;48.944;9.148;2023-07-31T01:59:20;6.97;;;1.40;;
1839;SDS011;920;48.944;9.148;2023-07-31T02:01:49;3.30;;;1.50;;
1839;SDS011;920;48.944;9.148;2023-07-31T02:04:16;3.90;;;1.87;;
1839;SDS011;920;48.944;9.148;2023-07-31T02:06:43;2.63;;;1.53;;
1839;SDS011;920;48.944;9.148;2023-07-31T02:09:10;3.50;;;1.73;;
1839;SDS011;920;48.944;9.148;2023-07-31T02:11:36;2.77;;;1.63;;
1839;SDS011;920;48.944;9.148;2023-07-31T02:14:03;3.70;;;1.63;;
1839;SDS011;920;48.944;9.148;2023-07-31T02:16:30;3.03;;;1.60;;
1839;SDS011;920;48.944;9.148;2023-07-31T02:18:58;3.00;;;1.30;;
1839;SDS011;920;48.944;9.148;2023-07-31T02:21:25;2.10;;;1.50;;
1839;SDS011;920;48.944;9.148;2023-07-31T02:23:52;2.50;;;1.60;;
1839;SDS011;920;48.944;9.148;2023-07-31T02:26:18;2.10;;;1.40;;
1839;SDS011;920;48.944;9.148;2023-07-31T02:28:45;2.80;;;1.50;;
1839;SDS011;920;48.944;9.148;2023-07-31T02:31:12;2.33;;;1.47;;
1839;SDS011;920;48.944;9.148;2023-07-31T02:33:39;3.90;;;1.30;;
1839;SDS011;920;48.944;9.148;2023-07-31T02:36:07;3.13;;;2.07;;
1839;SDS011;920;48.944;9.148;2023-07-31T02:38:34;2.60;;;1.80;;
1839;SDS011;920;48.944;9.148;2023-07-31T02:41:00;3.13;;;2.00;;
1839;SDS011;920;48.944;9.148;2023-07-31T02:43:27;2.73;;;1.83;;
1839;SDS011;920;48.944;9.148;2023-07-31T02:45:54;3.77;;;1.83;;
1839;SDS011;920;48.944;9.148;2023-07-31T02:48:23;3.60;;;2.03;;
1839;SDS011;920;48.944;9.148;2023-07-31T02:50:49;3.40;;;1.97;;
1839;SDS011;920;48.944;9.148;2023-07-31T02:53:18;3.30;;;1.67;;
1839;SDS011;920;48.944;9.148;2023-07-31T02:55:44;3.00;;;1.87;;
1839;SDS011;920;48.944;9.148;2023-07-31T02:58:11;4.50;;;1.87;;
1839;SDS011;920;48.944;9.148;2023-07-31T03:00:41;2.80;;;1.60;;
1839;SDS011;920;48.944;9.148;2023-07-31T03:03:08;4.73;;;2.70;;
1839;SDS011;920;48.944;9.148;2023-07-31T03:05:35;3.30;;;1.60;;
1839;SDS011;920;48.944;9.148;2023-07-31T03:08:02;3.33;;;1.73;;
1839;SDS011;920;48.944;9.148;2023-07-31T03:10:30;2.80;;;1.70;;
1839;SDS011;920;48.944;9.148;2023-07-31T03:12:57;2.57;;;1.50;;
1839;SDS011;920;48.944;9.148;2023-07-31T03:15:24;3.50;;;1.63;;
1839;SDS011;920;48.944;9.148;2023-07-31T03:17:51;2.20;;;1.70;;
1839;SDS011;920;48.944;9.148;2023-07-31T03:20:18;2.63;;;1.40;;
1839;SDS011;920;48.944;9.148;2023-07-31T03:22:44;2.40;;;1.60;;
1839;SDS011;920;48.944;9.148;2023-07-31T03:25:11;3.20;;;1.60;;
1839;SDS011;920;48.944;9.148;2023-07-31T03:27:40;2.77;;;1.83;;
1839;SDS011;920;48.944;9.148;2023-07-31T03:30:08;3.27;;;1.63;;
1839;SDS011;920;48.944;9.148;2023-07-31T03:32:35;2.90;;;1.70;;
1839;SDS011;920;48.944;9.148;2023-07-31T03:35:02;2.50;;;1.63;;
1839;SDS011;920;48.944;9.148;2023-07-31T03:37:30;3.00;;;1.70;;
1839;SDS011;920;48.944;9.148;2023-07-31T03:39:57;2.60;;;1.70;;
1839;SDS011;920;48.944;9.148;2023-07-31T03:42:24;4.00;;;1.80;;
1839;SDS011;920;48.944;9.148;2023-07-31T03:44:52;3.43;;;1.70;;
1839;SDS011;920;48.944;9.148;2023-07-31T03:47:19;2.40;;;1.80;;
1839;SDS011;920;48.944;9.148;2023-07-31T03:49:45;2.87;;;1.73;;
1839;SDS011;920;48.944;9.148;2023-07-31T03:52:12;2.60;;;1.70;;
1839;SDS011;920;48.944;9.148;2023-07-31T03:54:39;2.30;;;1.60;;
1839;SDS011;920;48.944;9.148;2023-07-31T03:57:06;3.57;;;1.97;;
1839;SDS011;920;48.944;9.148;2023-07-31T03:59:32;3.43;;;1.63;;
1839;SDS011;920;48.944;9.148;2023-07-31T04:02:00;2.63;;;1.57;;
1839;SDS011;920;48.944;9.148;2023-07-31T04:04:27;2.13;;;1.60;;
1839;SDS011;920;48.944;9.148;2023-07-31T04:06:54;2.60;;;1.63;;
1839;SDS011;920;48.944;9.148;2023-07-31T04:09:21;2.80;;;1.77;;
1839;SDS011;920;48.944;9.148;2023-07-31T04:11:47;3.00;;;1.70;;
1839;SDS011;920;48.944;9.148;2023-07-31T04:14:14;2.77;;;1.60;;
1839;SDS011;920;48.944;9.148;2023-07-31T04:16:41;6.93;;;1.93;;
1839;SDS011;920;48.944;9.148;2023-07-31T04:19:09;2.40;;;1.80;;
1839;SDS011;920;48.944;9.148;2023-07-31T04:21:36;2.90;;;1.80;;
1839;SDS011;920;48.944;9.148;2023-07-31T04:24:03;3.17;;;1.70;;
1839;SDS011;920;48.944;9.148;2023-07-31T04:26:30;3.17;;;1.80;;
1839;SDS011;920;48.944;9.148;2023-07-31T04:28:57;2.80;;;1.40;;
1839;SDS011;920;48.944;9.148;2023-07-31T04:31:23;3.83;;;2.20;;
1839;SDS011;920;48.944;9.148;2023-07-31T04:33:50;2.97;;;1.80;;
1839;SDS011;920;48.944;9.148;2023-07-31T04:36:18;2.87;;;1.40;;
1839;SDS011;920;48.944;9.148;2023-07-31T04:38:45;2.77;;;1.70;;
1839;SDS011;920;48.944;9.148;2023-07-31T04:41:12;2.87;;;1.63;;
1839;SDS011;920;48.944;9.148;2023-07-31T04:43:39;2.93;;;1.80;;
1839;SDS011;920;48.944;9.148;2023-07-31T04:46:06;2.63;;;1.53;;
1839;SDS011;920;48.944;9.148;2023-07-31T04:48:32;3.13;;;1.80;;
1839;SDS011;920;48.944;9.148;2023-07-31T04:50:59;5.20;;;1.50;;
1839;SDS011;920;48.944;9.148;2023-07-31T04:53:27;3.33;;;1.53;;
1839;SDS011;920;48.944;9.148;2023-07-31T04:55:54;2.93;;;1.80;;
1839;SDS011;920;48.944;9.148;2023-07-31T04:58:21;2.77;;;1.87;;
1839;SDS011;920;48.944;9.148;2023-07-31T05:00:48;2.40;;;1.57;;
1839;SDS011;920;48.944;9.148;2023-07-31T05:03:15;2.50;;;1.57;;
1839;SDS011;920;48.944;9.148;2023-07-31T05:05:41;4.10;;;1.83;;
1839;SDS011;920;48.944;9.148;2023-07-31T05:08:08;2.53;;;1.70;;
1839;SDS011;920;48.944;9.148;2023-07-31T05:10:36;3.20;;;1.70;;
1839;SDS011;920;48.944;9.148;2023-07-31T05:13:03;3.60;;;1.90;;
1839;SDS011;920;48.944;9.148;2023-07-31T05:15:30;7.00;;;3.63;;
1839;SDS011;920;48.944;9.148;2023-07-31T05:17:57;5.63;;;3.83;;
1839;SDS011;920;48.944;9.148;2023-07-31T05:20:24;6.23;;;2.60;;
1839;SDS011;920;48.944;9.148;2023-07-31T05:22:50;7.20;;;3.60;;
1839;SDS011;920;48.944;9.148;2023-07-31T05:25:17;3.60;;;2.43;;
1839;SDS011;920;48.944;9.148;2023-07-31T05:27:45;4.93;;;2.70;;
1839;SDS011;920;48.944;9.148;2023-07-31T05:30:12;5.50;;;2.30;;
1839;SDS011;920;48.944;9.148;2023-07-31T05:32:39;3.30;;;2.00;;
1839;SDS011;920;48.944;9.148;2023-07-31T05:35:06;3.17;;;1.70;;
1839;SDS011;920;48.944;9.148;2023-07-31T05:37:33;2.83;;;1.73;;
1839;SDS011;920;48.944;9.148;2023-07-31T05:40:00;3.10;;;1.80;;
1839;SDS011;920;48.944;9.148;2023-07-31T05:42:26;3.90;;;1.70;;
1839;SDS011;920;48.944;9.148;2023-07-31T05:44:55;3.40;;;1.97;;
1839;SDS011;920;48.944;9.148;2023-07-31T05:47:21;2.80;;;1.67;;
1839;SDS011;920;48.944;9.148;2023-07-31T05:49:48;2.97;;;1.90;;
1839;SDS011;920;48.944;9.148;2023-07-31T05:52:20;3.20;;;1.67;;
1839;SDS011;920;48.944;9.148;2023-07-31T05:54:47;4.33;;;1.93;;
1839;SDS011;920;48.944;9.148;2023-07-31T05:57:14;3.30;;;1.77;;
1839;SDS011;920;48.944;9.148;2023-07-31T05:59:41;3.50;;;1.90;;
1839;SDS011;920;48.944;9.148;2023-07-31T06:06:03;3.03;;;2.07;;
1839;SDS011;920;48.944;9.148;2023-07-31T06:08:30;4.20;;;2.03;;
1839;SDS011;920;48.944;9.148;2023-07-31T06:10:58;3.47;;;1.80;;
1839;SDS011;920;48.944;9.148;2023-07-31T06:13:24;4.67;;;1.90;;
1839;SDS011;920;48.944;9.148;2023-07-31T06:15:51;3.10;;;1.83;;
1839;SDS011;920;48.944;9.148;2023-07-31T06:18:18;4.30;;;2.00;;
1839;SDS011;920;48.944;9.148;2023-07-31T06:20:45;3.17;;;1.50;;
1839;SDS011;920;48.944;9.148;2023-07-31T06:23:14;4.10;;;1.80;;
1839;SDS011;920;48.944;9.148;2023-07-31T06:25:40;2.83;;;1.60;;
1839;SDS011;920;48.944;9.148;2023-07-31T06:28:07;2.90;;;1.90;;
1839;SDS011;920;48.944;9.148;2023-07-31T06:30:34;2.97;;;1.80;;
1839;SDS011;920;48.944;9.148;2023-07-31T06:33:01;3.03;;;1.60;;
1839;SDS011;920;48.944;9.148;2023-07-31T06:35:28;3.33;;;1.97;;
1839;SDS011;920;48.944;9.148;2023-07-31T06:37:55;4.93;;;1.90;;
1839;SDS011;920;48.944;9.148;2023-07-31T06:40:23;4.43;;;2.10;;
1839;SDS011;920;48.944;9.148;2023-07-31T06:42:50;3.90;;;1.90;;
1839;SDS011;920;48.944;9.148;2023-07-31T06:45:17;2.97;;;1.63;;
1839;SDS011;920;48.944;9.148;2023-07-31T06:47:43;4.30;;;1.70;;
1839;SDS011;920;48.944;9.148;2023-07-31T06:50:11;3.23;;;1.90;;
1839;SDS011;920;48.944;9.148;2023-07-31T06:52:41;3.87;;;1.77;;
1839;SDS011;920;48.944;9.148;2023-07-31T06:55:16;3.40;;;1.90;;
1839;SDS011;920;48.944;9.148;2023-07-31T06:57:45;2.30;;;1.53;;
1839;SDS011;920;48.944;9.148;2023-07-31T07:00:12;3.90;;;2.10;;
1839;SDS011;920;48.944;9.148;2023-07-31T07:02:40;3.17;;;1.87;;
1839;SDS011;920;48.944;9.148;2023-07-31T07:05:07;3.33;;;1.70;;
1839;SDS011;920;48.944;9.148;2023-07-31T07:07:34;6.03;;;1.73;;
1839;SDS011;920;48.944;9.148;2023-07-31T07:10:01;2.80;;;1.70;;
1839;SDS011;920;48.944;9.148;2023-07-31T07:12:29;2.67;;;1.90;;
1839;SDS011;920;48.944;9.148;2023-07-31T07:14:58;4.30;;;1.50;;
1839;SDS011;920;48.944;9.148;2023-07-31T07:17:24;3.20;;;1.90;;
1839;SDS011;920;48.944;9.148;2023-07-31T07:19:52;3.60;;;1.90;;
1839;SDS011;920;48.944;9.148;2023-07-31T07:22:18;2.70;;;1.60;;
1839;SDS011;920;48.944;9.148;2023-07-31T07:24:45;4.10;;;1.70;;
1839;SDS011;920;48.944;9.148;2023-07-31T07:27:12;2.93;;;1.70;;
1839;SDS011;920;48.944;9.148;2023-07-31T07:29:40;3.77;;;1.90;;
1839;SDS011;920;48.944;9.148;2023-07-31T07:32:08;3.07;;;1.73;;
1839;SDS011;920;48.944;9.148;2023-07-31T07:34:35;3.93;;;2.40;;
1839;SDS011;920;48.944;9.148;2023-07-31T07:37:02;3.70;;;2.03;;
1839;SDS011;920;48.944;9.148;2023-07-31T07:39:29;7.77;;;2.17;;
1839;SDS011;920;48.944;9.148;2023-07-31T07:41:56;3.47;;;1.87;;
1839;SDS011;920;48.944;9.148;2023-07-31T07:44:22;3.90;;;2.50;;
1839;SDS011;920;48.944;9.148;2023-07-31T07:46:49;4.20;;;2.00;;
1839;SDS011;920;48.944;9.148;2023-07-31T07:49:17;4.07;;;2.20;;
1839;SDS011;920;48.944;9.148;2023-07-31T07:51:44;3.17;;;1.83;;
1839;SDS011;920;48.944;9.148;2023-07-31T07:54:11;4.63;;;2.00;;
1839;SDS011;920;48.944;9.148;2023-07-31T07:56:38;4.20;;;2.07;;
1839;SDS011;920;48.944;9.148;2023-07-31T07:59:04;3.27;;;1.87;;
1839;SDS011;920;48.944;9.148;2023-07-31T08:01:31;2.80;;;1.73;;
1839;SDS011;920;48.944;9.148;2023-07-31T08:03:58;3.60;;;2.20;;
1839;SDS011;920;48.944;9.148;2023-07-31T08:06:26;4.00;;;1.90;;
1839;SDS011;920;48.944;9.148;2023-07-31T08:08:54;2.90;;;1.80;;
1839;SDS011;920;48.944;9.148;2023-07-31T08:11:21;4.20;;;1.90;;
1839;SDS011;920;48.944;9.148;2023-07-31T08:13:48;3.67;;;1.60;;
1839;SDS011;920;48.944;9.148;2023-07-31T08:16:15;3.80;;;1.80;;
1839;SDS011;920;48.944;9.148;2023-07-31T08:18:42;4.20;;;2.13;;
1839;SDS011;920;48.944;9.148;2023-07-31T08:21:09;3.03;;;2.03;;
1839;SDS011;920;48.944;9.148;2023-07-31T08:23:37;3.33;;;2.00;;
1839;SDS011;920;48.944;9.148;2023-07-31T08:26:03;3.03;;;1.87;;
1839;SDS011;920;48.944;9.148;2023-07-31T08:28:30;3.80;;;2.10;;
1839;SDS011;920;48.944;9.148;2023-07-31T08:30:57;2.70;;;1.83;;
1839;SDS011;920;48.944;9.148;2023-07-31T08:33:24;2.97;;;1.80;;
1839;SDS011;920;48.944;9.148;2023-07-31T08:35:51;4.83;;;2.33;;
1839;SDS011;920;48.944;9.148;2023-07-31T08:38:17;3.00;;;2.10;;
1839;SDS011;920;48.944;9.148;2023-07-31T08:40:46;3.30;;;1.87;;
1839;SDS011;920;48.944;9.148;2023-07-31T08:43:12;3.50;;;1.73;;
1839;SDS011;920;48.944;9.148;2023-07-31T08:45:41;4.00;;;2.00;;
1839;SDS011;920;48.944;9.148;2023-07-31T08:48:08;5.80;;;2.10;;
1839;SDS011;920;48.944;9.148;2023-07-31T08:50:35;4.33;;;2.10;;
1839;SDS011;920;48.944;9.148;2023-07-31T08:53:02;3.83;;;2.20;;
1839;SDS011;920;48.944;9.148;2023-07-31T08:55:29;3.20;;;2.30;;
1839;SDS011;920;48.944;9.148;2023-07-31T08:57:57;6.03;;;2.30;;
1839;SDS011;920;48.944;9.148;2023-07-31T09:00:25;5.10;;;2.57;;
1839;SDS011;920;48.944;9.148;2023-07-31T09:02:54;3.83;;;2.50;;
1839;SDS011;920;48.944;9.148;2023-07-31T09:05:23;3.00;;;1.90;;
1839;SDS011;920;48.944;9.148;2023-07-31T09:07:51;3.50;;;2.00;;
1839;SDS011;920;48.944;9.148;2023-07-31T09:10:18;4.30;;;2.13;;
1839;SDS011;920;48.944;9.148;2023-07-31T09:12:44;3.30;;;2.20;;
1839;SDS011;920;48.944;9.148;2023-07-31T09:15:13;3.90;;;2.23;;
1839;SDS011;920;48.944;9.148;2023-07-31T09:17:40;4.63;;;2.40;;
1839;SDS011;920;48.944;9.148;2023-07-31T09:20:13;3.30;;;2.10;;
1839;SDS011;920;48.944;9.148;2023-07-31T09:22:41;3.43;;;2.13;;
1839;SDS011;920;48.944;9.148;2023-07-31T09:25:14;3.10;;;2.00;;
1839;SDS011;920;48.944;9.148;2023-07-31T09:27:46;4.17;;;2.30;;
1839;SDS011;920;48.944;9.148;2023-07-31T09:30:15;4.13;;;2.10;;
1839;SDS011;920;48.944;9.148;2023-07-31T09:32:42;3.97;;;2.23;;
1839;SDS011;920;48.944;9.148;2023-07-31T09:35:13;3.90;;;2.57;;
1839;SDS011;920;48.944;9.148;2023-07-31T09:37:40;4.90;;;2.50;;
1839;SDS011;920;48.944;9.148;2023-07-31T09:40:07;4.77;;;2.50;;
1839;SDS011;920;48.944;9.148;2023-07-31T09:42:35;3.30;;;2.40;;
1839;SDS011;920;48.944;9.148;2023-07-31T09:45:06;5.50;;;2.47;;
1839;SDS011;920;48.944;9.148;2023-07-31T09:47:36;3.60;;;2.50;;
1839;SDS011;920;48.944;9.148;2023-07-31T09:50:05;3.60;;;2.23;;
1839;SDS011;920;48.944;9.148;2023-07-31T09:52:33;3.90;;;2.23;;
1839;SDS011;920;48.944;9.148;2023-07-31T09:55:00;4.23;;;3.00;;
1839;SDS011;920;48.944;9.148;2023-07-31T09:57:27;5.47;;;2.03;;
1839;SDS011;920;48.944;9.148;2023-07-31T09:59:54;3.80;;;2.20;;
1839;SDS011;920;48.944;9.148;2023-07-31T10:02:22;3.53;;;2.47;;
1839;SDS011;920;48.944;9.148;2023-07-31T10:04:50;3.63;;;2.00;;
1839;SDS011;920;48.944;9.148;2023-07-31T10:07:17;3.37;;;2.13;;
1839;SDS011;920;48.944;9.148;2023-07-31T10:09:44;3.77;;;2.23;;
1839;SDS011;920;48.944;9.148;2023-07-31T10:12:12;3.60;;;2.03;;
1839;SDS011;920;48.944;9.148;2023-07-31T10:14:40;3.33;;;2.20;;
1839;SDS011;920;48.944;9.148;2023-07-31T10:17:10;3.63;;;2.00;;
1839;SDS011;920;48.944;9.148;2023-07-31T10:19:38;3.37;;;1.87;;
1839;SDS011;920;48.944;9.148;2023-07-31T10:22:06;3.03;;;1.90;;
1839;SDS011;920;48.944;9.148;2023-07-31T10:24:34;4.00;;;2.30;;
1839;SDS011;920;48.944;9.148;2023-07-31T10:27:01;5.30;;;2.40;;
1839;SDS011;920;48.944;9.148;2023-07-31T10:29:30;3.73;;;1.93;;
1839;SDS011;920;48.944;9.148;2023-07-31T10:31:58;3.67;;;1.93;;
1839;SDS011;920;48.944;9.148;2023-07-31T10:34:25;4.40;;;2.80;;
1839;SDS011;920;48.944;9.148;2023-07-31T10:39:58;4.50;;;2.43;;
1839;SDS011;920;48.944;9.148;2023-07-31T10:42:30;3.77;;;2.10;;
1839;SDS011;920;48.944;9.148;2023-07-31T10:44:59;2.80;;;2.23;;
1839;SDS011;920;48.944;9.148;2023-07-31T10:47:27;4.17;;;2.57;;
1839;SDS011;920;48.944;9.148;2023-07-31T10:52:55;4.00;;;2.33;;
1839;SDS011;920;48.944;9.148;2023-07-31T10:55:24;3.67;;;2.50;;
1839;SDS011;920;48.944;9.148;2023-07-31T10:57:51;3.83;;;2.13;;
1839;SDS011;920;48.944;9.148;2023-07-31T11:00:19;4.13;;;2.10;;
1839;SDS011;920;48.944;9.148;2023-07-31T11:02:58;3.90;;;2.17;;
1839;SDS011;920;48.944;9.148;2023-07-31T11:05:45;4.17;;;2.40;;
1839;SDS011;920;48.944;9.148;2023-07-31T11:08:20;3.80;;;2.13;;
1839;SDS011;920;48.944;9.148;2023-07-31T11:10:49;4.93;;;2.50;;
1839;SDS011;920;48.944;9.148;2023-07-31T11:13:17;4.40;;;2.70;;
1839;SDS011;920;48.944;9.148;2023-07-31T11:15:44;4.07;;;2.77;;
1839;SDS011;920;48.944;9.148;2023-07-31T11:18:11;3.50;;;2.20;;
1839;SDS011;920;48.944;9.148;2023-07-31T11:20:39;4.63;;;2.70;;
1839;SDS011;920;48.944;9.148;2023-07-31T11:23:07;4.33;;;2.60;;
1839;SDS011;920;48.944;9.148;2023-07-31T11:25:37;4.90;;;2.90;;
1839;SDS011;920;48.944;9.148;2023-07-31T11:28:08;7.37;;;3.00;;
1839;SDS011;920;48.944;9.148;2023-07-31T11:30:35;3.93;;;2.67;;
1839;SDS011;920;48.944;9.148;2023-07-31T11:33:03;4.00;;;2.50;;
1839;SDS011;920;48.944;9.148;2023-07-31T11:35:31;3.97;;;2.60;;
1839;SDS011;920;48.944;9.148;2023-07-31T11:37:58;4.67;;;2.63;;
1839;SDS011;920;48.944;9.148;2023-07-31T11:40:25;4.80;;;2.93;;
1839;SDS011;920;48.944;9.148;2023-07-31T11:42:56;4.97;;;2.77;;
1839;SDS011;920;48.944;9.148;2023-07-31T11:45:24;4.50;;;2.67;;
1839;SDS011;920;48.944;9.148;2023-07-31T11:47:53;4.50;;;2.60;;
1839;SDS011;920;48.944;9.148;2023-07-31T11:50:20;4.17;;;2.33;;
1839;SDS011;920;48.944;9.148;2023-07-31T11:52:48;5.57;;;2.60;;
1839;SDS011;920;48.944;9.148;2023-07-31T11:55:17;6.33;;;2.60;;
1839;SDS011;920;48.944;9.148;2023-07-31T11:57:44;5.07;;;2.90;;
1839;SDS011;920;48.944;9.148;2023-07-31T12:00:13;4.00;;;2.47;;
1839;SDS011;920;48.944;9.148;2023-07-31T12:02:40;7.97;;;3.33;;
1839;SDS011;920;48.944;9.148;2023-07-31T12:05:06;3.90;;;2.67;;
1839;SDS011;920;48.944;9.148;2023-07-31T12:07:46;3.50;;;2.50;;
1839;SDS011;920;48.944;9.148;2023-07-31T12:10:25;5.13;;;2.87;;
1839;SDS011;920;48.944;9.148;2023-07-31T12:12:59;5.27;;;2.83;;
1839;SDS011;920;48.944;9.148;2023-07-31T12:15:39;5.27;;;2.93;;
1839;SDS011;920;48.944;9.148;2023-07-31T12:18:07;3.10;;;2.20;;
1839;SDS011;920;48.944;9.148;2023-07-31T12:20:35;3.77;;;2.33;;
1839;SDS011;920;48.944;9.148;2023-07-31T12:23:02;4.37;;;3.07;;
1839;SDS011;920;48.944;9.148;2023-07-31T12:25:29;5.00;;;2.70;;
1839;SDS011;920;48.944;9.148;2023-07-31T12:27:57;4.70;;;2.73;;
1839;SDS011;920;48.944;9.148;2023-07-31T12:30:28;4.33;;;2.63;;
1839;SDS011;920;48.944;9.148;2023-07-31T12:32:56;3.73;;;2.63;;
1839;SDS011;920;48.944;9.148;2023-07-31T12:35:23;4.90;;;2.77;;
1839;SDS011;920;48.944;9.148;2023-07-31T12:37:50;4.57;;;2.87;;
1839;SDS011;920;48.944;9.148;2023-07-31T12:40:16;3.30;;;2.47;;
1839;SDS011;920;48.944;9.148;2023-07-31T12:42:43;4.30;;;2.43;;
1839;SDS011;920;48.944;9.148;2023-07-31T12:45:10;3.60;;;2.50;;
1839;SDS011;920;48.944;9.148;2023-07-31T12:47:37;5.50;;;3.40;;
1839;SDS011;920;48.944;9.148;2023-07-31T12:50:06;4.10;;;2.43;;
1839;SDS011;920;48.944;9.148;2023-07-31T12:52:33;4.93;;;2.70;;
1839;SDS011;920;48.944;9.148;2023-07-31T12:55:00;4.10;;;2.77;;
1839;SDS011;920;48.944;9.148;2023-07-31T12:57:27;3.60;;;2.40;;
1839;SDS011;920;48.944;9.148;2023-07-31T12:59:54;3.37;;;2.23;;
1839;SDS011;920;48.944;9.148;2023-07-31T13:02:20;3.53;;;2.60;;
1839;SDS011;920;48.944;9.148;2023-07-31T13:04:48;3.37;;;2.00;;
1839;SDS011;920;48.944;9.148;2023-07-31T13:07:17;4.40;;;2.30;;
1839;SDS011;920;48.944;9.148;2023-07-31T13:09:44;4.30;;;2.60;;
1839;SDS011;920;48.944;9.148;2023-07-31T13:12:11;4.63;;;2.67;;
1839;SDS011;920;48.944;9.148;2023-07-31T13:14:38;3.47;;;2.33;;
1839;SDS011;920;48.944;9.148;2023-07-31T13:17:05;2.90;;;2.30;;
1839;SDS011;920;48.944;9.148;2023-07-31T13:19:32;3.10;;;2.40;;
1839;SDS011;920;48.944;9.148;2023-07-31T13:21:59;4.53;;;2.60;;
1839;SDS011;920;48.944;9.148;2023-07-31T13:24:27;4.10;;;2.50;;
1839;SDS011;920;48.944;9.148;2023-07-31T13:26:55;6.83;;;3.07;;
1839;SDS011;920;48.944;9.148;2023-07-31T13:29:21;5.83;;;3.00;;
1839;SDS011;920;48.944;9.148;2023-07-31T13:31:49;4.93;;;2.50;;
1839;SDS011;920;48.944;9.148;2023-07-31T13:34:16;3.70;;;2.30;;
1839;SDS011;920;48.944;9.148;2023-07-31T13:36:43;6.70;;;3.17;;
1839;SDS011;920;48.944;9.148;2023-07-31T13:39:09;3.50;;;2.30;;
1839;SDS011;920;48.944;9.148;2023-07-31T13:41:38;4.40;;;2.53;;
1839;SDS011;920;48.944;9.148;2023-07-31T13:44:04;4.00;;;2.53;;
1839;SDS011;920;48.944;9.148;2023-07-31T13:46:39;4.57;;;2.70;;
1839;SDS011;920;48.944;9.148;2023-07-31T13:49:06;5.80;;;3.10;;
1839;SDS011;920;48.944;9.148;2023-07-31T13:51:33;3.80;;;2.80;;
1839;SDS011;920;48.944;9.148;2023-07-31T13:54:00;6.77;;;2.57;;
1839;SDS011;920;48.944;9.148;2023-07-31T13:56:27;4.13;;;3.47;;
1839;SDS011;920;48.944;9.148;2023-07-31T13:58:55;3.90;;;2.70;;
1839;SDS011;920;48.944;9.148;2023-07-31T14:01:22;3.23;;;2.33;;
1839;SDS011;920;48.944;9.148;2023-07-31T14:03:49;3.80;;;2.77;;
1839;SDS011;920;48.944;9.148;2023-07-31T14:06:16;4.53;;;2.40;;
1839;SDS011;920;48.944;9.148;2023-07-31T14:08:43;3.87;;;2.50;;
1839;SDS011;920;48.944;9.148;2023-07-31T14:11:09;6.13;;;3.10;;
1839;SDS011;920;48.944;9.148;2023-07-31T14:13:36;4.20;;;2.77;;
1839;SDS011;920;48.944;9.148;2023-07-31T14:16:05;5.00;;;2.50;;
1839;SDS011;920;48.944;9.148;2023-07-31T14:18:31;4.33;;;2.70;;
1839;SDS011;920;48.944;9.148;2023-07-31T14:20:58;16.47;;;3.47;;
1839;SDS011;920;48.944;9.148;2023-07-31T14:23:25;5.27;;;4.27;;
1839;SDS011;920;48.944;9.148;2023-07-31T14:25:52;4.33;;;3.60;;
1839;SDS011;920;48.944;9.148;2023-07-31T14:28:19;5.53;;;3.00;;
1839;SDS011;920;48.944;9.148;2023-07-31T14:30:46;4.20;;;2.77;;
1839;SDS011;920;48.944;9.148;2023-07-31T14:33:14;3.93;;;2.60;;
1839;SDS011;920;48.944;9.148;2023-07-31T14:35:41;2.90;;;1.93;;
1839;SDS011;920;48.944;9.148;2023-07-31T14:38:08;3.60;;;2.50;;
1839;SDS011;920;48.944;9.148;2023-07-31T14:40:34;3.93;;;2.30;;
1839;SDS011;920;48.944;9.148;2023-07-31T14:43:01;3.30;;;2.20;;
1839;SDS011;920;48.944;9.148;2023-07-31T14:45:28;3.43;;;2.10;;
1839;SDS011;920;48.944;9.148;2023-07-31T14:47:55;3.17;;;1.90;;
1839;SDS011;920;48.944;9.148;2023-07-31T14:50:24;3.93;;;2.43;;
1839;SDS011;920;48.944;9.148;2023-07-31T14:52:51;3.17;;;2.37;;
1839;SDS011;920;48.944;9.148;2023-07-31T14:55:18;4.47;;;2.57;;
1839;SDS011;920;48.944;9.148;2023-07-31T14:57:45;4.20;;;2.50;;
1839;SDS011;920;48.944;9.148;2023-07-31T15:00:12;4.70;;;2.37;;
1839;SDS011;920;48.944;9.148;2023-07-31T15:02:40;4.33;;;2.07;;
1839;SDS011;920;48.944;9.148;2023-07-31T15:05:07;3.80;;;2.27;;
1839;SDS011;920;48.944;9.148;2023-07-31T15:07:36;4.60;;;2.20;;
1839;SDS011;920;48.944;9.148;2023-07-31T15:10:03;4.40;;;2.63;;
1839;SDS011;920;48.944;9.148;2023-07-31T15:12:31;3.60;;;2.50;;
1839;SDS011;920;48.944;9.148;2023-07-31T15:14:58;3.07;;;2.30;;
1839;SDS011;920;48.944;9.148;2023-07-31T15:17:25;4.10;;;2.67;;
1839;SDS011;920;48.944;9.148;2023-07-31T15:19:53;4.17;;;2.37;;
1839;SDS011;920;48.944;9.148;2023-07-31T15:22:20;3.70;;;2.37;;
1839;SDS011;920;48.944;9.148;2023-07-31T15:24:48;3.60;;;2.70;;
1839;SDS011;920;48.944;9.148;2023-07-31T15:27:15;2.80;;;2.50;;
1839;SDS011;920;48.944;9.148;2023-07-31T15:29:42;3.77;;;2.23;;
1839;SDS011;920;48.944;9.148;2023-07-31T15:32:09;3.23;;;2.30;;
1839;SDS011;920;48.944;9.148;2023-07-31T15:34:36;3.33;;;2.37;;
1839;SDS011;920;48.944;9.148;2023-07-31T15:37:05;5.50;;;2.70;;
1839;SDS011;920;48.944;9.148;2023-07-31T15:39:32;3.50;;;2.40;;
1839;SDS011;920;48.944;9.148;2023-07-31T15:42:01;3.30;;;2.40;;